sensor_id;sensor_type;location;lat;lon;timestamp;pressure;altitude;pressure_sealevel;temperature;humidity
71642;BME280;60657;50.122;14.468;2023-11-18T00:02:26;98753.65879720777;;;6.280994888227667;67.25284199282827
71642;BME280;60657;50.122;14.468;2023-11-18T00:05:41;98753.43004354357;;;6.222247653925386;67.72587167162585
71642;BME280;60657;50.122;14.468;2023-11-18T00:08:57;98755.42671081728;;;6.382467383840698;67.2776379034104
71642;BME280;60657;50.122;14.468;2023-11-18T00:12:13;98752.9521264031;;;6.366445410849167;67.30815594720379
71642;BME280;60657;50.122;14.468;2023-11-18T00:15:31;98753.11138785572;;;6.438544289311054;67.0983443961242
71642;BME280;60657;50.122;14.468;2023-11-18T00:18:47;98747.1354637528;;;6.3130388342107295;67.65148393987945
71642;BME280;60657;50.122;14.468;2023-11-18T00:22:03;98765.26019563014;;;6.27031357289998;68.09399557488365
71642;BME280;60657;50.122;14.468;2023-11-18T00:25:20;98765.22763337904;;;6.280994888227667;68.6604867627985
71642;BME280;60657;50.122;14.468;2023-11-18T00:28:36;98770.01182627292;;;6.174181734950793;70.47631036850538
71642;BME280;60657;50.122;14.468;2023-11-18T00:31:51;98775.56111628185;;;6.067368581673918;71.25070572976273
71642;BME280;60657;50.122;14.468;2023-11-18T00:35:07;98766.60232229655;;;6.176852063782711;70.95506218051423
71642;BME280;60657;50.122;14.468;2023-11-18T00:38:23;98764.96412951486;;;6.171511406118867;71.1820401312276
71642;BME280;60657;50.122;14.468;2023-11-18T00:41:39;98780.44054874826;;;6.083390554665449;71.10955977721828
71642;BME280;60657;50.122;14.468;2023-11-18T00:44:55;98789.60179861326;;;6.150148775463492;70.73571374074922
71642;BME280;60657;50.122;14.468;2023-11-18T00:48:11;98788.13310967933;;;6.2249179827573045;69.87930113679712
71642;BME280;60657;50.122;14.468;2023-11-18T00:51:27;98789.80493737623;;;6.219577325093461;70.01853971160449
71642;BME280;60657;50.122;14.468;2023-11-18T00:54:43;98798.09710056266;;;6.259632257572292;69.49591821164263
71642;BME280;60657;50.122;14.468;2023-11-18T00:57:58;98808.72798233255;;;6.16083009079118;68.96185244525826
71642;BME280;60657;50.122;14.468;2023-11-18T01:01:14;98800.83864672338;;;6.355764095521479;68.5574883649958
71642;BME280;60657;50.122;14.468;2023-11-18T01:04:30;98808.12907264392;;;6.331731136034179;69.08010986495766
71642;BME280;60657;50.122;14.468;2023-11-18T01:07:46;98813.8126197739;;;6.264972915236136;69.5016403448539
71642;BME280;60657;50.122;14.468;2023-11-18T01:11:02;98801.44102807391;;;6.243610284580761;69.93270771343556
71642;BME280;60657;50.122;14.468;2023-11-18T01:14:18;98810.26289443541;;;6.152819104295418;70.36186770428016
71642;BME280;60657;50.122;14.468;2023-11-18T01:17:34;98823.39890892494;;;6.115434500648512;70.81963836118105
71642;BME280;60657;50.122;14.468;2023-11-18T01:20:52;98810.99522274167;;;6.139467460135805;71.27931639581902
71642;BME280;60657;50.122;14.468;2023-11-18T01:24:08;98812.66753838345;;;6.131456473640043;71.4605172808423
71642;BME280;60657;50.122;14.468;2023-11-18T01:27:24;98813.36423588975;;;6.094071869993137;71.26596475165942
71642;BME280;60657;50.122;14.468;2023-11-18T01:30:39;98820.89018726455;;;6.115434500648512;70.80247196154727
71642;BME280;60657;50.122;14.468;2023-11-18T01:33:55;98819.70011608452;;;5.944533455405505;71.32700083924621
71642;BME280;60657;50.122;14.468;2023-11-18T01:37:11;98818.89957166382;;;5.971236743724724;70.87876707103075
71642;BME280;60657;50.122;14.468;2023-11-18T01:40:27;98825.62572818052;;;6.037994964522774;71.07331960021362
71642;BME280;60657;50.122;14.468;2023-11-18T01:43:45;98829.18281381433;;;6.150148775463492;71.01419089036393
71642;BME280;60657;50.122;14.468;2023-11-18T01:47:01;98828.41645902209;;;6.163500419623105;71.15724422064545
71642;BME280;60657;50.122;14.468;2023-11-18T01:50:19;98828.3465249729;;;6.096742198825055;70.72808422980087
71642;BME280;60657;50.122;14.468;2023-11-18T01:53:36;98829.91362975533;;;6.091401541161211;70.53925383382925
71642;BME280;60657;50.122;14.468;2023-11-18T01:56:53;98839.8438233818;;;6.091401541161211;70.50873579003586
71642;BME280;60657;50.122;14.468;2023-11-18T02:00:10;98840.5020440053;;;6.024643320363168;70.68230716411078
71642;BME280;60657;50.122;14.468;2023-11-18T02:03:27;98843.95488108452;;;6.0860608834973675;70.4877546349279
71642;BME280;60657;50.122;14.468;2023-11-18T02:06:43;98846.39294829892;;;6.067368581673918;70.60791943236438
71642;BME280;60657;50.122;14.468;2023-11-18T02:09:59;98852.24824497219;;;6.150148775463492;70.884489204242
71642;BME280;60657;50.122;14.468;2023-11-18T02:13:18;98852.63527351011;;;6.3130388342107295;70.6937514305333
71642;BME280;60657;50.122;14.468;2023-11-18T02:16:38;98845.28085357869;;;6.3344014648661044;70.78149080643931
71642;BME280;60657;50.122;14.468;2023-11-18T02:19:56;98850.09131973903;;;6.216906996261542;70.65178912031739
71642;BME280;60657;50.122;14.468;2023-11-18T02:23:12;98850.19544558242;;;6.329060807202261;70.74715800717173
71642;BME280;60657;50.122;14.468;2023-11-18T02:26:31;98859.2221935824;;;6.240939955748836;70.73952849622339
71642;BME280;60657;50.122;14.468;2023-11-18T02:29:47;98850.71725589476;;;6.1955443656061675;70.65560387579156
71642;BME280;60657;50.122;14.468;2023-11-18T02:33:07;98862.98007351208;;;6.120775158312355;70.80437933928435
71642;BME280;60657;50.122;14.468;2023-11-18T02:36:32;98856.14323505003;;;6.029983978027012;71.0485236896315
71642;BME280;60657;50.122;14.468;2023-11-18T02:39:57;98857.08821502283;;;6.067368581673918;71.26214999618524
71642;BME280;60657;50.122;14.468;2023-11-18T02:43:20;98852.31936485053;;;6.094071869993137;71.51010910200657
71642;BME280;60657;50.122;14.468;2023-11-18T02:46:37;98851.34029193605;;;6.080720225833524;71.9163805600061
71642;BME280;60657;50.122;14.468;2023-11-18T02:49:55;98851.44737212661;;;6.096742198825055;72.01747158007171
71642;BME280;60657;50.122;14.468;2023-11-18T02:53:11;98861.12647214356;;;6.008621347371637;72.4752422369726
71642;BME280;60657;50.122;14.468;2023-11-18T02:56:28;98861.23500451464;;;6.037994964522774;72.4027618829633
71642;BME280;60657;50.122;14.468;2023-11-18T02:59:44;98857.96072764353;;;6.0860608834973675;72.29213397421225
71642;BME280;60657;50.122;14.468;2023-11-18T03:02:59;98858.90463145296;;;6.096742198825055;72.32455939574274
71642;BME280;60657;50.122;14.468;2023-11-18T03:06:15;98855.45110812604;;;6.072709239337762;72.38941023880369
71642;BME280;60657;50.122;14.468;2023-11-18T03:09:32;98855.66526909854;;;6.171511406118867;72.17959868772412
71642;BME280;60657;50.122;14.468;2023-11-18T03:12:49;98855.55856402729;;;6.120775158312355;72.14908064393073
71642;BME280;60657;50.122;14.468;2023-11-18T03:16:06;98853.92122248403;;;6.11810482948043;72.16052491035325
71642;BME280;60657;50.122;14.468;2023-11-18T03:19:22;98860.2535183876;;;6.008621347371637;72.33409628442817
71642;BME280;60657;50.122;14.468;2023-11-18T03:22:38;98861.96307730328;;;6.008621347371637;72.0212863355459
71642;BME280;60657;50.122;14.468;2023-11-18T03:25:54;98856.83409824962;;;5.944533455405505;72.17196917677578
71642;BME280;60657;50.122;14.468;2023-11-18T03:29:09;98860.87031156976;;;5.944533455405505;72.25780117494469
71642;BME280;60657;50.122;14.468;2023-11-18T03:32:25;98858.28635674123;;;5.904478522926681;72.36270695048448
71642;BME280;60657;50.122;14.468;2023-11-18T03:35:41;98869.20027800521;;;5.9765774013885675;72.39513237201496
71642;BME280;60657;50.122;14.468;2023-11-18T03:38:57;98864.47291653554;;;6.046005951018543;72.00030518043793
71642;BME280;60657;50.122;14.468;2023-11-18T03:42:12;98872.47327336228;;;5.944533455405505;72.29594872968643
71642;BME280;60657;50.122;14.468;2023-11-18T03:45:28;98866.80052717825;;;6.0193026626993245;72.23872739757381
71642;BME280;60657;50.122;14.468;2023-11-18T03:48:44;98880.04101260443;;;5.981918059052411;72.17196917677578
71642;BME280;60657;50.122;14.468;2023-11-18T03:52:00;98878.10729050341;;;5.877775234607462;72.65262836652171
71642;BME280;60657;50.122;14.468;2023-11-18T03:55:17;98886.47568083873;;;5.936522468909743;72.52864881361104
71642;BME280;60657;50.122;14.468;2023-11-18T03:58:33;98888.6847752338;;;5.794995040817881;72.71747920958266
71642;BME280;60657;50.122;14.468;2023-11-18T04:01:49;98892.60161373985;;;5.7602807660029;72.91584649423972
71642;BME280;60657;50.122;14.468;2023-11-18T04:05:05;98884.50013941342;;;5.808346684977494;72.95780880445564
71642;BME280;60657;50.122;14.468;2023-11-18T04:08:21;98891.34692151201;;;5.904478522926681;72.60112916762036
71642;BME280;60657;50.122;14.468;2023-11-18T04:11:37;98893.05836545255;;;5.939192797741661;72.35126268406195
71642;BME280;60657;50.122;14.468;2023-11-18T04:14:53;98902.11412271873;;;5.941863126573587;72.30357824063478
71642;BME280;60657;50.122;14.468;2023-11-18T04:18:08;98904.66285552573;;;5.971236743724724;72.18722819867247
71642;BME280;60657;50.122;14.468;2023-11-18T04:21:24;98906.86982040855;;;5.867093919279775;72.22156099794003
71642;BME280;60657;50.122;14.468;2023-11-18T04:24:40;98906.90811712455;;;5.875104905775537;72.30548561837186
71642;BME280;60657;50.122;14.468;2023-11-18T04:27:56;98908.7724073554;;;5.971236743724724;72.16624704356451
71642;BME280;60657;50.122;14.468;2023-11-18T04:31:14;98923.65022583943;;;5.944533455405505;71.85534447241932
71642;BME280;60657;50.122;14.468;2023-11-18T04:34:29;98919.50263899034;;;5.971236743724724;71.75425345235371
71642;BME280;60657;50.122;14.468;2023-11-18T04:37:45;98923.83962963567;;;6.059357595178149;71.68368047608148
71642;BME280;60657;50.122;14.468;2023-11-18T04:41:01;98924.44925034224;;;5.939192797741661;71.57305256733044
71642;BME280;60657;50.122;14.468;2023-11-18T04:44:17;98915.88559766141;;;5.8590829327840055;71.60547798886091
71642;BME280;60657;50.122;14.468;2023-11-18T04:47:33;98928.52034327184;;;5.9178301670862865;71.46623941405356
71642;BME280;60657;50.122;14.468;2023-11-18T04:50:48;98925.85449761481;;;5.864423590447849;71.68940260929274
71642;BME280;60657;50.122;14.468;2023-11-18T04:54:04;98929.20342261263;;;5.832379644464787;71.49675745784695
71642;BME280;60657;50.122;14.468;2023-11-18T04:57:20;98933.9935407848;;;5.867093919279775;71.50247959105822
71642;BME280;60657;50.122;14.468;2023-11-18T05:00:36;98929.16468312097;;;5.931181811245899;71.7256427862974
71642;BME280;60657;50.122;14.468;2023-11-18T05:03:52;98929.47226571059;;;6.0193026626993245;71.03898680094606
71642;BME280;60657;50.122;14.468;2023-11-18T05:07:08;98934.38085472923;;;6.016632333867399;70.99511711299306
71642;BME280;60657;50.122;14.468;2023-11-18T05:10:26;98939.28913498906;;;5.9685664148928055;71.27359426260777
71642;BME280;60657;50.122;14.468;2023-11-18T05:13:42;98953.36927925714;;;5.973907072556649;70.8120088502327
71642;BME280;60657;50.122;14.468;2023-11-18T05:16:57;98959.15356449557;;;5.955214770733193;70.58693827725642
71642;BME280;60657;50.122;14.468;2023-11-18T05:20:13;98956.0738041735;;;6.059357595178149;70.41908903639276
71642;BME280;60657;50.122;14.468;2023-11-18T05:23:29;98967.64382002655;;;6.046005951018543;70.35996032654307
71642;BME280;60657;50.122;14.468;2023-11-18T05:26:45;98962.54203080195;;;5.9685664148928055;70.67086289768825
71642;BME280;60657;50.122;14.468;2023-11-18T05:30:01;98956.60242965602;;;5.997940032043942;71.01037613488975
71642;BME280;60657;50.122;14.468;2023-11-18T05:33:20;98948.53781993095;;;6.035324635690856;71.10193026626993
71642;BME280;60657;50.122;14.468;2023-11-18T05:36:36;98961.66585248818;;;6.008621347371637;71.35179674982834
71642;BME280;60657;50.122;14.468;2023-11-18T05:39:51;98959.38495948541;;;6.062027924010074;71.39757381551843
71642;BME280;60657;50.122;14.468;2023-11-18T05:43:07;98947.77703861012;;;6.048676279850461;71.20492866407264
71642;BME280;60657;50.122;14.468;2023-11-18T05:46:23;98961.78185044993;;;6.046005951018543;71.2240024414435
71642;BME280;60657;50.122;14.468;2023-11-18T05:49:39;98963.37946371807;;;6.035324635690856;71.0923933775845
71642;BME280;60657;50.122;14.468;2023-11-18T05:52:55;98968.20989605627;;;5.928511482413974;71.26214999618524
71642;BME280;60657;50.122;14.468;2023-11-18T05:56:11;98961.78185044993;;;6.046005951018543;70.79293507286182
71642;BME280;60657;50.122;14.468;2023-11-18T05:59:27;98971.67662798306;;;6.046005951018543;70.44960708018615
71642;BME280;60657;50.122;14.468;2023-11-18T06:02:42;98981.80398993017;;;6.166170748455023;70.24551766231785
71642;BME280;60657;50.122;14.468;2023-11-18T06:05:58;98964.37096457627;;;6.096742198825055;70.18829633020523
71642;BME280;60657;50.122;14.468;2023-11-18T06:09:14;98978.56918265842;;;6.168841077286949;69.84306095979248
71642;BME280;60657;50.122;14.468;2023-11-18T06:12:30;98973.5826659524;;;6.11810482948043;69.80300602731364
71642;BME280;60657;50.122;14.468;2023-11-18T06:15:46;98971.8310599531;;;6.128786144808117;69.86785687037461
71642;BME280;60657;50.122;14.468;2023-11-18T06:19:02;98973.54436650283;;;6.16083009079118;69.6332494087129
71642;BME280;60657;50.122;14.468;2023-11-18T06:22:18;98972.70691099625;;;6.120775158312355;69.42915999084458
71642;BME280;60657;50.122;14.468;2023-11-18T06:25:34;98967.0358290368;;;6.166170748455023;69.52071412222476
71642;BME280;60657;50.122;14.468;2023-11-18T06:28:49;98976.93249428368;;;6.152819104295418;69.22888532845045
71642;BME280;60657;50.122;14.468;2023-11-18T06:32:05;98981.88083956328;;;6.16083009079118;69.20218204013123
71642;BME280;60657;50.122;14.468;2023-11-18T06:35:21;98995.88830147331;;;6.158159761959261;69.13733119707027
71642;BME280;60657;50.122;14.468;2023-11-18T06:38:37;98996.88002732623;;;6.243610284580761;69.23270008392463
71642;BME280;60657;50.122;14.468;2023-11-18T06:41:53;98994.3672654077;;;6.168841077286949;69.1487754634928
71642;BME280;60657;50.122;14.468;2023-11-18T06:45:09;99009.09688942015;;;6.168841077286949;69.1621271076524
71642;BME280;60657;50.122;14.468;2023-11-18T06:48:25;99009.65974188568;;;6.091401541161211;69.07629510948348
71642;BME280;60657;50.122;14.468;2023-11-18T06:51:41;99003.15464165482;;;6.120775158312355;69.03051804379339
71642;BME280;60657;50.122;14.468;2023-11-18T06:54:58;99004.94728583771;;;6.163500419623105;68.868390936141
71642;BME280;60657;50.122;14.468;2023-11-18T06:58:13;99019.75292135235;;;6.120775158312355;67.90516517891203
71642;BME280;60657;50.122;14.468;2023-11-18T07:01:29;99019.63441529886;;;6.115434500648512;67.78118562600137
71642;BME280;60657;50.122;14.468;2023-11-18T07:04:45;99022.98586213637;;;6.14213778896773;66.93812466620889
71642;BME280;60657;50.122;14.468;2023-11-18T07:08:01;99014.84392454647;;;6.155489433127336;66.75692378118562
71642;BME280;60657;50.122;14.468;2023-11-18T07:11:17;99024.77996572643;;;6.208896009765773;67.0411230640116
71642;BME280;60657;50.122;14.468;2023-11-18T07:14:34;99035.67238398449;;;6.2542915999084485;67.20134279392691
71642;BME280;60657;50.122;14.468;2023-11-18T07:17:50;99041.41995206368;;;6.235599298084992;67.45693141069657
71642;BME280;60657;50.122;14.468;2023-11-18T07:21:10;99036.51029000852;;;6.262302586404211;67.50080109864957
71642;BME280;60657;50.122;14.468;2023-11-18T07:24:31;99032.59351973642;;;6.34775310902571;67.23567559319447
71642;BME280;60657;50.122;14.468;2023-11-18T07:27:50;99040.93339020619;;;6.366445410849167;66.52231631952392
71642;BME280;60657;50.122;14.468;2023-11-18T07:31:05;99042.45388041539;;;6.294346532387273;66.73403524834058
71642;BME280;60657;50.122;14.468;2023-11-18T07:34:21;99040.09551440984;;;6.366445410849167;66.19043259327077
71642;BME280;60657;50.122;14.468;2023-11-18T07:37:37;99052.35298450397;;;6.315709163042648;66.52231631952392
71642;BME280;60657;50.122;14.468;2023-11-18T07:40:53;99040.1341490136;;;6.403830014496073;66.2590981918059
71642;BME280;60657;50.122;14.468;2023-11-18T07:44:12;99043.5625944921;;;6.446555275806823;66.52231631952392
71642;BME280;60657;50.122;14.468;2023-11-18T07:47:28;99042.72473187456;;;6.446555275806823;66.59288929579614
71642;BME280;60657;50.122;14.468;2023-11-18T07:50:44;99036.1751753193;;;6.462577248798354;66.51277943083848
71642;BME280;60657;50.122;14.468;2023-11-18T07:54:00;99047.98056740739;;;6.588082703898678;66.23239490348669
71642;BME280;60657;50.122;14.468;2023-11-18T07:57:16;99047.18055120076;;;6.548027771419854;66.28580148012513
71642;BME280;60657;50.122;14.468;2023-11-18T08:00:31;99042.60156588406;;;6.724269474326697;66.0836194399939
71642;BME280;60657;50.122;14.468;2023-11-18T08:03:47;99047.29349783524;;;6.596093690394447;66.14465552758068
71642;BME280;60657;50.122;14.468;2023-11-18T08:07:03;99048.28068839025;;;6.702906843671322;66.39642938887617
71642;BME280;60657;50.122;14.468;2023-11-18T08:10:19;99051.92629036712;;;6.788357366292821;65.6411078049897
71642;BME280;60657;50.122;14.468;2023-11-18T08:13:35;99047.66455258739;;;6.710917830167084;65.84328984512092
71642;BME280;60657;50.122;14.468;2023-11-18T08:16:51;99046.20785331792;;;6.876478217746239;65.76508735790036
71642;BME280;60657;50.122;14.468;2023-11-18T08:20:07;99046.28009024262;;;6.873807888914321;65.75936522468909
71642;BME280;60657;50.122;14.468;2023-11-18T08:23:24;99052.07153324479;;;6.823071641107802;65.8032349126421
71642;BME280;60657;50.122;14.468;2023-11-18T08:26:40;99056.95265671222;;;6.839093614099333;66.11985961699855
71642;BME280;60657;50.122;14.468;2023-11-18T08:29:56;99061.90624271194;;;6.881818875410083;66.23430228122378
71642;BME280;60657;50.122;14.468;2023-11-18T08:33:12;99060.48457060613;;;6.964599069199664;65.75745784695201
71642;BME280;60657;50.122;14.468;2023-11-18T08:36:28;99055.56606331156;;;6.961928740367739;65.91386282139315
71642;BME280;60657;50.122;14.468;2023-11-18T08:39:44;99064.565008589;;;6.927214465552758;65.98062104219119
71642;BME280;60657;50.122;14.468;2023-11-18T08:42:59;99065.9485113635;;;6.764324406805521;65.81658655680171
71642;BME280;60657;50.122;14.468;2023-11-18T08:46:15;99083.39656219978;;;6.841763942931259;65.80704966811628
71642;BME280;60657;50.122;14.468;2023-11-18T08:49:31;99085.87341568178;;;6.8844892042420085;65.44464789806973
71642;BME280;60657;50.122;14.468;2023-11-18T08:52:47;99084.60020243311;;;7.012664988174258;65.79751277943083
71642;BME280;60657;50.122;14.468;2023-11-18T08:56:03;99089.14649122272;;;7.178225375753414;65.20813305867094
71642;BME280;60657;50.122;14.468;2023-11-18T08:59:20;99090.71597070021;;;7.143511100938433;64.76180666819256
71642;BME280;60657;50.122;14.468;2023-11-18T09:02:37;99092.77695130996;;;7.322423132677194;64.05607690547036
71642;BME280;60657;50.122;14.468;2023-11-18T09:05:54;99102.2317225261;;;7.541390096894787;64.1686121919585
71642;BME280;60657;50.122;14.468;2023-11-18T09:09:12;99102.95688019789;;;7.8084229800869736;62.89448386358434
71642;BME280;60657;50.122;14.468;2023-11-18T09:12:28;99106.8533187957;;;7.67490653849088;62.81818875410086
71642;BME280;60657;50.122;14.468;2023-11-18T09:15:43;99107.69096647714;;;7.76035706111238;62.62935835812924
71642;BME280;60657;50.122;14.468;2023-11-18T09:18:59;99117.87293360577;;;7.832455939574274;62.09338521400778
71642;BME280;60657;50.122;14.468;2023-11-18T09:22:15;99110.00611679617;;;7.661554894331275;62.61600671396964
71642;BME280;60657;50.122;14.468;2023-11-18T09:25:34;99110.8438310816;;;7.605477988860912;62.03425650415808
71642;BME280;60657;50.122;14.468;2023-11-18T09:28:50;99108.39700866364;;;7.634851606012056;62.060959792477306
71642;BME280;60657;50.122;14.468;2023-11-18T09:32:08;99120.25614995295;;;7.8004119935912115;62.17730983443961
71642;BME280;60657;50.122;14.468;2023-11-18T09:35:23;99122.6052929933;;;7.698939497978181;61.938887617303735
71642;BME280;60657;50.122;14.468;2023-11-18T09:38:40;99115.22997122041;;;7.744335088120849;62.4443427176318
71642;BME280;60657;50.122;14.468;2023-11-18T09:41:56;99126.9904450889;;;7.768368047608149;62.7094682230869
71642;BME280;60657;50.122;14.468;2023-11-18T09:45:13;99112.00939231091;;;7.7496757457846925;62.526359960326545
71642;BME280;60657;50.122;14.468;2023-11-18T09:48:31;99099.92322433708;;;7.896543831540399;61.771038376440075
71642;BME280;60657;50.122;14.468;2023-11-18T09:51:48;99108.88361076215;;;7.904554818036161;61.89120317387655
71642;BME280;60657;50.122;14.468;2023-11-18T09:55:11;99093.96692846752;;;7.824444953078505;61.53833829251545
71642;BME280;60657;50.122;14.468;2023-11-18T09:58:37;99091.54893090411;;;7.861829556725411;61.067215991454944
71642;BME280;60657;50.122;14.468;2023-11-18T10:02:02;99090.80511797048;;;7.979324025329973;61.46776531624323
71642;BME280;60657;50.122;14.468;2023-11-18T10:05:20;99089.06801831572;;;7.891203173876555;61.47730220492866
71642;BME280;60657;50.122;14.468;2023-11-18T10:08:37;99092.84648932365;;;8.144884412909136;60.95086594949264
71642;BME280;60657;50.122;14.468;2023-11-18T10:11:54;99086.25923836045;;;8.620202944991227;60.437781338216226
71642;BME280;60657;50.122;14.468;2023-11-18T10:15:11;99082.02129390517;;;9.042114900434882;59.00152590218967
71642;BME280;60657;50.122;14.468;2023-11-18T10:18:32;99072.34628279001;;;9.207675288014038;57.92767223620966
71642;BME280;60657;50.122;14.468;2023-11-18T10:21:48;99089.72301068451;;;9.148928053711757;57.3611810482948
71642;BME280;60657;50.122;14.468;2023-11-18T10:25:04;99087.4705903715;;;8.735027084763864;58.3778133821622
71642;BME280;60657;50.122;14.468;2023-11-18T10:28:21;99085.06408633749;;;8.799114976729989;58.64484626535439
71642;BME280;60657;50.122;14.468;2023-11-18T10:31:37;99087.28546738006;;;8.646906233310446;59.03967345693141
71642;BME280;60657;50.122;14.468;2023-11-18T10:34:54;99081.7681210946;;;8.403906309605553;59.083543144884416
71642;BME280;60657;50.122;14.468;2023-11-18T10:38:11;99078.02583868048;;;8.537422751201646;58.96910048065919
71642;BME280;60657;50.122;14.468;2023-11-18T10:41:27;99083.8841332444;;;8.622873273823146;58.64675364309147
71642;BME280;60657;50.122;14.468;2023-11-18T10:44:53;99084.90753424725;;;8.785763332570383;58.43503471427482
71642;BME280;60657;50.122;14.468;2023-11-18T10:48:13;99079.99137961377;;;8.809796292057676;57.51567864499886
71642;BME280;60657;50.122;14.468;2023-11-18T10:51:29;99082.50179251925;;;8.849851224536508;57.77126726176852
71642;BME280;60657;50.122;14.468;2023-11-18T10:54:49;99079.73179663983;;;9.13557640955215;56.699320973525595
71642;BME280;60657;50.122;14.468;2023-11-18T10:58:06;99083.64481927054;;;8.945983062485695;56.39986266880293
71642;BME280;60657;50.122;14.468;2023-11-18T11:01:30;99104.61319515134;;;9.047455558098726;56.52956435492485
71642;BME280;60657;50.122;14.468;2023-11-18T11:04:47;99095.4825286722;;;9.127565423056382;55.841000991836424
71642;BME280;60657;50.122;14.468;2023-11-18T11:08:03;99089.5018845538;;;8.935301747158007;56.447547112230104
71642;BME280;60657;50.122;14.468;2023-11-18T11:11:20;99094.44730159924;;;8.996719310292207;55.96879530022125
71642;BME280;60657;50.122;14.468;2023-11-18T11:14:40;99100.75596822007;;;8.828488593881133;56.010757610437174
71642;BME280;60657;50.122;14.468;2023-11-18T11:18:20;99103.08048716346;;;8.78042267490654;56.60967421988251
71642;BME280;60657;50.122;14.468;2023-11-18T11:21:44;99107.21171662673;;;8.79644464789807;57.12848096437018
71642;BME280;60657;50.122;14.468;2023-11-18T11:25:09;99105.26280902585;;;8.56679636835279;56.598229953459985
71642;BME280;60657;50.122;14.468;2023-11-18T11:28:34;99099.45872268104;;;8.454642557412072;54.7690547035935
71642;BME280;60657;50.122;14.468;2023-11-18T11:32:01;99103.99752494588;;;8.281071183337147;55.51865415426871
71642;BME280;60657;50.122;14.468;2023-11-18T11:35:28;99105.84548500025;;;8.419928282597084;55.375600823987185
71642;BME280;60657;50.122;14.468;2023-11-18T11:38:49;99103.41951308168;;;8.406576638437478;55.757076371404594
71642;BME280;60657;50.122;14.468;2023-11-18T11:42:07;99106.48012727854;;;8.32913710231174;55.48813611047532
71642;BME280;60657;50.122;14.468;2023-11-18T11:45:24;99108.09609071621;;;8.37186236362249;56.010757610437174
71642;BME280;60657;50.122;14.468;2023-11-18T11:48:39;99108.09609071621;;;8.302433813992522;53.86877241168841
71642;BME280;60657;50.122;14.468;2023-11-18T11:51:59;99112.94246361406;;;8.267719539177541;54.64507515068284
71642;BME280;60657;50.122;14.468;2023-11-18T11:55:22;99098.22413514605;;;8.350499732967116;54.17395284962234
71642;BME280;60657;50.122;14.468;2023-11-18T11:58:48;99107.25878851664;;;8.29442282749676;54.16060120546273